Time;durP1;ratioP1;P1;durP2;ratioP2;P2;SDS_P1;SDS_P2;PMS_P1;PMS_P2;Temp;Humidity;BMP_temperature;BMP_pressure;BME280_temperature;BME280_humidity;BME280_pressure;Samples;Min_cycle;Max_cycle;Signal;HPM_P1;HPM_P2
2022/04/07 00:01:46;;;;;;;9.35;3.25;;;;;;;;;;5135715;27;20102;-40
2022/04/07 00:04:12;;;;;;;8.32;2.85;;;;;;;;;;5135257;27;20015;-39
2022/04/07 00:06:38;;;;;;;7.90;2.85;;;;;;;;;;5135426;27;20471;-40
2022/04/07 00:09:04;;;;;;;6.32;3.15;;;;;;;;;;5116851;27;20091;-39
2022/04/07 00:11:33;;;;;;;6.55;2.97;;;;;;;;;;5135560;27;20046;-39
2022/04/07 00:13:59;;;;;;;6.75;3.40;;;;;;;;;;5135417;27;20027;-39
2022/04/07 00:16:25;;;;;;;7.65;4.03;;;;;;;;;;5135229;27;20018;-42
2022/04/07 00:18:51;;;;;;;6.47;3.28;;;;;;;;;;5134980;27;20083;-43
2022/04/07 00:21:24;;;;;;;7.80;3.30;;;;;;;;;;5135247;27;20072;-40
2022/04/07 00:23:54;;;;;;;6.00;3.63;;;;;;;;;;5135135;27;20035;-38
2022/04/07 00:26:20;;;;;;;8.27;3.42;;;;;;;;;;5135013;27;20035;-39
2022/04/07 00:28:46;;;;;;;6.00;3.03;;;;;;;;;;5135015;27;20015;-38
2022/04/07 00:31:12;;;;;;;6.53;3.70;;;;;;;;;;5135537;27;20019;-48
2022/04/07 00:33:39;;;;;;;8.85;3.90;;;;;;;;;;5134932;27;20067;-39
2022/04/07 00:36:05;;;;;;;9.60;4.25;;;;;;;;;;5135234;27;20031;-40
2022/04/07 00:38:31;;;;;;;7.13;4.15;;;;;;;;;;5134976;27;20023;-45
2022/04/07 00:40:57;;;;;;;7.25;3.53;;;;;;;;;;5134974;27;20094;-39
2022/04/07 00:43:28;;;;;;;10.30;4.63;;;;;;;;;;5134773;27;20064;-39
2022/04/07 00:45:54;;;;;;;7.40;4.00;;;;;;;;;;5134879;27;20023;-42
2022/04/07 00:48:22;;;;;;;6.68;3.60;;;;;;;;;;5134701;27;20034;-41
2022/04/07 00:50:48;;;;;;;7.00;3.88;;;;;;;;;;5134458;27;20047;-39
2022/04/07 00:53:15;;;;;;;7.13;3.33;;;;;;;;;;5133992;27;20050;-39
2022/04/07 00:55:44;;;;;;;6.97;3.10;;;;;;;;;;5134723;27;20027;-39
2022/04/07 00:58:11;;;;;;;6.80;4.13;;;;;;;;;;5134410;27;20110;-40
2022/04/07 01:00:38;;;;;;;10.95;4.38;;;;;;;;;;5134837;27;20477;-38
2022/04/07 01:03:04;;;;;;;7.80;3.13;;;;;;;;;;5134421;27;20070;-44
2022/04/07 01:05:31;;;;;;;6.72;2.95;;;;;;;;;;5134351;27;20113;-39
2022/04/07 01:07:57;;;;;;;7.05;4.15;;;;;;;;;;5134394;27;20456;-39
2022/04/07 01:10:25;;;;;;;6.97;4.28;;;;;;;;;;5134314;27;20030;-38
2022/04/07 01:12:51;;;;;;;8.40;3.97;;;;;;;;;;5134518;27;20050;-39
2022/04/07 01:15:17;;;;;;;6.38;3.88;;;;;;;;;;5133543;27;20227;-38
2022/04/07 01:17:43;;;;;;;16.40;5.10;;;;;;;;;;5134312;27;20479;-40
2022/04/07 01:20:10;;;;;;;5.63;3.33;;;;;;;;;;5134115;28;20027;-39
2022/04/07 01:22:39;;;;;;;6.95;4.45;;;;;;;;;;5134302;28;20051;-42
2022/04/07 01:25:05;;;;;;;6.20;3.75;;;;;;;;;;5134485;28;20029;-43
2022/04/07 01:27:32;;;;;;;6.35;3.65;;;;;;;;;;5134234;28;20035;-39
2022/04/07 01:30:01;;;;;;;5.72;2.80;;;;;;;;;;5134202;28;20019;-38
2022/04/07 01:32:31;;;;;;;7.65;3.67;;;;;;;;;;5134290;28;20033;-51
2022/04/07 01:34:57;;;;;;;5.80;3.17;;;;;;;;;;5134240;28;20024;-47
2022/04/07 01:37:23;;;;;;;6.15;3.55;;;;;;;;;;5134312;28;20019;-39
2022/04/07 01:39:51;;;;;;;5.93;2.53;;;;;;;;;;5134393;28;20038;-39
2022/04/07 01:42:18;;;;;;;6.18;3.20;;;;;;;;;;5134183;28;20076;-40
2022/04/07 01:44:47;;;;;;;5.32;2.97;;;;;;;;;;5134152;28;20110;-40
2022/04/07 01:47:13;;;;;;;5.80;3.15;;;;;;;;;;5134315;28;20035;-38
2022/04/07 01:49:41;;;;;;;5.55;3.30;;;;;;;;;;5133818;28;20031;-39
2022/04/07 01:52:08;;;;;;;7.88;3.25;;;;;;;;;;5133988;28;20038;-39
2022/04/07 01:54:37;;;;;;;6.75;2.85;;;;;;;;;;5134102;28;20024;-40
2022/04/07 01:57:03;;;;;;;4.13;2.90;;;;;;;;;;5133840;28;20047;-39
2022/04/07 01:59:30;;;;;;;4.63;2.83;;;;;;;;;;5134291;28;20068;-40
2022/04/07 02:01:56;;;;;;;5.45;2.70;;;;;;;;;;5133907;28;20487;-40
2022/04/07 02:04:23;;;;;;;8.32;2.67;;;;;;;;;;5133826;28;20092;-40
2022/04/07 02:06:49;;;;;;;6.43;2.30;;;;;;;;;;5133837;28;20035;-40
2022/04/07 02:09:15;;;;;;;5.20;2.60;;;;;;;;;;5133849;28;20023;-40
2022/04/07 02:11:41;;;;;;;8.75;3.60;;;;;;;;;;5133796;28;20068;-39
2022/04/07 02:14:07;;;;;;;3.67;2.60;;;;;;;;;;5134125;28;20031;-40
2022/04/07 02:16:33;;;;;;;4.28;2.67;;;;;;;;;;5133738;28;20027;-39
2022/04/07 02:19:00;;;;;;;4.05;2.08;;;;;;;;;;5133707;28;20031;-39
2022/04/07 02:21:26;;;;;;;2.97;2.22;;;;;;;;;;5134043;28;20530;-40
2022/04/07 02:23:52;;;;;;;3.50;1.80;;;;;;;;;;5133749;28;20028;-38
2022/04/07 02:26:18;;;;;;;3.17;2.10;;;;;;;;;;5134995;27;20031;-37
2022/04/07 02:28:44;;;;;;;6.03;3.00;;;;;;;;;;5137388;27;20076;-37
2022/04/07 02:31:11;;;;;;;4.93;2.47;;;;;;;;;;5137435;27;20033;-37
2022/04/07 02:33:40;;;;;;;3.95;2.38;;;;;;;;;;5137648;27;20053;-38
2022/04/07 02:36:07;;;;;;;3.22;2.35;;;;;;;;;;5137314;27;20471;-38
2022/04/07 02:38:34;;;;;;;3.17;2.22;;;;;;;;;;5137284;27;20029;-40
2022/04/07 02:41:00;;;;;;;2.65;2.10;;;;;;;;;;5137241;27;20031;-39
2022/04/07 02:43:26;;;;;;;3.72;2.42;;;;;;;;;;5137150;27;20015;-42
2022/04/07 02:45:55;;;;;;;3.80;2.38;;;;;;;;;;5137060;27;20105;-43
2022/04/07 02:48:21;;;;;;;3.97;2.28;;;;;;;;;;5137177;27;20042;-37
2022/04/07 02:50:47;;;;;;;4.30;2.40;;;;;;;;;;5136922;27;20051;-38
2022/04/07 02:53:14;;;;;;;3.33;2.28;;;;;;;;;;5137027;27;20106;-40
2022/04/07 02:55:40;;;;;;;4.90;2.53;;;;;;;;;;5136974;27;20034;-40
2022/04/07 02:58:06;;;;;;;4.25;1.92;;;;;;;;;;5136992;27;20471;-38
2022/04/07 03:00:32;;;;;;;3.05;1.92;;;;;;;;;;5136835;27;20071;-38
2022/04/07 03:02:59;;;;;;;4.10;2.45;;;;;;;;;;5137241;27;20466;-38
2022/04/07 03:05:25;;;;;;;2.55;1.80;;;;;;;;;;5136581;27;20031;-41
2022/04/07 03:07:51;;;;;;;2.83;1.90;;;;;;;;;;5136795;27;20031;-37
2022/04/07 03:10:17;;;;;;;4.95;2.30;;;;;;;;;;5136807;27;20151;-39
2022/04/07 03:12:45;;;;;;;4.80;2.38;;;;;;;;;;5136915;27;20451;-39
2022/04/07 03:15:11;;;;;;;3.45;2.20;;;;;;;;;;5136630;27;20474;-38
2022/04/07 03:17:38;;;;;;;7.00;2.45;;;;;;;;;;5136549;27;20023;-39
2022/04/07 03:20:05;;;;;;;3.33;2.20;;;;;;;;;;5136277;27;20039;-38
2022/04/07 03:22:31;;;;;;;3.75;2.08;;;;;;;;;;5136566;27;20023;-40
2022/04/07 03:24:57;;;;;;;3.80;2.22;;;;;;;;;;5136481;27;20019;-39
2022/04/07 03:27:23;;;;;;;6.43;2.50;;;;;;;;;;5136271;27;20031;-39
2022/04/07 03:29:50;;;;;;;2.97;1.52;;;;;;;;;;5136386;27;20026;-39
2022/04/07 03:32:20;;;;;;;3.08;1.73;;;;;;;;;;5136593;27;20020;-39
2022/04/07 03:34:46;;;;;;;7.75;2.20;;;;;;;;;;5136287;27;20043;-38
2022/04/07 03:37:14;;;;;;;11.65;2.42;;;;;;;;;;5135760;27;20035;-38
2022/04/07 03:39:40;;;;;;;12.50;3.83;;;;;;;;;;5135770;27;20083;-38
2022/04/07 03:42:07;;;;;;;17.83;3.55;;;;;;;;;;5135900;27;20027;-40
2022/04/07 03:44:33;;;;;;;15.13;3.47;;;;;;;;;;5135981;27;20028;-38
2022/04/07 03:46:59;;;;;;;13.45;3.60;;;;;;;;;;5135696;27;20035;-38
2022/04/07 03:49:26;;;;;;;16.75;3.40;;;;;;;;;;5136012;27;20031;-49
2022/04/07 03:51:52;;;;;;;17.95;3.85;;;;;;;;;;5135550;27;20046;-39
2022/04/07 03:54:18;;;;;;;13.55;4.70;;;;;;;;;;5135776;27;20019;-37
2022/04/07 03:56:45;;;;;;;20.20;3.03;;;;;;;;;;5135661;27;20391;-40
2022/04/07 03:59:12;;;;;;;13.98;3.38;;;;;;;;;;5135625;27;20023;-38
2022/04/07 04:01:39;;;;;;;13.82;2.92;;;;;;;;;;5135632;27;20466;-39
2022/04/07 04:04:05;;;;;;;13.10;2.55;;;;;;;;;;5135716;27;20019;-39
2022/04/07 04:06:33;;;;;;;17.00;3.17;;;;;;;;;;5135502;27;20127;-39
2022/04/07 04:08:59;;;;;;;15.40;5.10;;;;;;;;;;5135490;27;20493;-38
2022/04/07 04:11:27;;;;;;;46.08;19.35;;;;;;;;;;5135412;27;20482;-38
2022/04/07 04:13:53;;;;;;;25.23;11.85;;;;;;;;;;5135432;27;20031;-40
2022/04/07 04:16:19;;;;;;;15.52;4.97;;;;;;;;;;5135513;27;20046;-38
2022/04/07 04:18:46;;;;;;;27.30;7.32;;;;;;;;;;5135442;27;20023;-38
2022/04/07 04:21:12;;;;;;;25.52;8.32;;;;;;;;;;5135179;27;20475;-38
2022/04/07 04:23:41;;;;;;;15.00;5.85;;;;;;;;;;5135310;27;20023;-38
2022/04/07 04:26:07;;;;;;;13.13;5.18;;;;;;;;;;5135010;27;20038;-37
2022/04/07 04:28:33;;;;;;;17.13;5.50;;;;;;;;;;5135098;27;20512;-41
2022/04/07 04:30:59;;;;;;;16.67;3.28;;;;;;;;;;5135230;27;20023;-39
2022/04/07 04:33:28;;;;;;;9.32;3.22;;;;;;;;;;5135315;27;20026;-39
2022/04/07 04:35:54;;;;;;;15.73;3.50;;;;;;;;;;5134914;27;20011;-46
2022/04/07 04:38:20;;;;;;;12.68;3.38;;;;;;;;;;5134931;27;20023;-39
2022/04/07 04:40:46;;;;;;;13.70;3.20;;;;;;;;;;5135060;27;20047;-42
2022/04/07 04:43:12;;;;;;;13.55;4.43;;;;;;;;;;5134788;27;20026;-39
2022/04/07 04:45:38;;;;;;;14.18;3.10;;;;;;;;;;5134925;27;20023;-40
2022/04/07 04:48:04;;;;;;;10.40;2.28;;;;;;;;;;5135118;27;20027;-39
2022/04/07 04:50:30;;;;;;;14.30;5.90;;;;;;;;;;5134542;27;20130;-38
2022/04/07 04:52:56;;;;;;;16.42;3.63;;;;;;;;;;5134697;27;20020;-38
2022/04/07 04:55:23;;;;;;;15.63;4.63;;;;;;;;;;5134048;27;20466;-37
2022/04/07 04:57:49;;;;;;;21.25;5.97;;;;;;;;;;5113707;28;20028;-40
2022/04/07 05:00:15;;;;;;;28.50;4.70;;;;;;;;;;5113729;28;20037;-38
2022/04/07 05:02:41;;;;;;;20.98;6.38;;;;;;;;;;5105649;28;20047;-39
2022/04/07 05:05:07;;;;;;;22.35;4.60;;;;;;;;;;5114070;28;20024;-40
2022/04/07 05:07:33;;;;;;;14.77;4.28;;;;;;;;;;5113701;28;20031;-42
2022/04/07 05:10:00;;;;;;;12.20;3.92;;;;;;;;;;5113986;28;20043;-37
2022/04/07 05:12:28;;;;;;;12.90;3.65;;;;;;;;;;5113701;28;20160;-37
2022/04/07 05:14:57;;;;;;;12.20;3.15;;;;;;;;;;5105503;28;20456;-37
2022/04/07 05:17:23;;;;;;;13.30;3.00;;;;;;;;;;5114037;28;20107;-37
2022/04/07 05:19:54;;;;;;;10.63;2.63;;;;;;;;;;5113853;28;20028;-38
2022/04/07 05:22:20;;;;;;;13.90;3.53;;;;;;;;;;5113752;28;20024;-39
2022/04/07 05:24:48;;;;;;;15.10;3.88;;;;;;;;;;5113746;28;20569;-37
2022/04/07 05:27:16;;;;;;;14.60;4.82;;;;;;;;;;5113635;28;20059;-39
2022/04/07 05:29:45;;;;;;;18.58;7.15;;;;;;;;;;5113668;28;20427;-39
2022/04/07 05:32:11;;;;;;;21.05;8.15;;;;;;;;;;5113736;28;20034;-39
2022/04/07 05:34:37;;;;;;;27.40;10.65;;;;;;;;;;5095139;28;20066;-39
2022/04/07 05:37:03;;;;;;;35.55;14.40;;;;;;;;;;5113471;28;20031;-43
2022/04/07 05:39:30;;;;;;;27.88;11.77;;;;;;;;;;5113684;28;20356;-40
2022/04/07 05:41:56;;;;;;;23.65;8.68;;;;;;;;;;5113489;28;20471;-39
2022/04/07 05:44:22;;;;;;;25.67;6.97;;;;;;;;;;5113557;28;20028;-38
2022/04/07 05:46:48;;;;;;;18.15;6.43;;;;;;;;;;5113504;28;20510;-38
2022/04/07 05:49:14;;;;;;;16.80;6.57;;;;;;;;;;5113612;28;20037;-38
2022/04/07 05:51:40;;;;;;;25.83;9.07;;;;;;;;;;5113406;28;20502;-39
2022/04/07 05:54:07;;;;;;;36.17;11.77;;;;;;;;;;5113537;28;20028;-39
2022/04/07 05:56:34;;;;;;;30.70;11.43;;;;;;;;;;5113362;28;20024;-38
2022/04/07 05:59:00;;;;;;;30.10;9.90;;;;;;;;;;5113752;28;20024;-42
2022/04/07 06:01:26;;;;;;;22.08;10.07;;;;;;;;;;5114823;28;20425;-40
2022/04/07 06:03:52;;;;;;;20.88;7.72;;;;;;;;;;5117621;28;20115;-39
2022/04/07 06:06:18;;;;;;;17.88;7.22;;;;;;;;;;5117335;28;20335;-40
2022/04/07 06:08:44;;;;;;;21.90;8.23;;;;;;;;;;5117336;28;20536;-39
2022/04/07 06:11:11;;;;;;;16.10;7.05;;;;;;;;;;5117312;28;20050;-39
2022/04/07 06:13:38;;;;;;;16.50;6.32;;;;;;;;;;5117122;28;20031;-48
2022/04/07 06:16:05;;;;;;;11.60;5.68;;;;;;;;;;5117204;28;20031;-41
2022/04/07 06:18:31;;;;;;;11.38;5.75;;;;;;;;;;5117297;28;20073;-47
2022/04/07 06:20:57;;;;;;;17.35;7.80;;;;;;;;;;5117368;28;20391;-45
2022/04/07 06:23:26;;;;;;;23.83;8.43;;;;;;;;;;5117021;28;20020;-43
2022/04/07 06:25:52;;;;;;;23.00;10.10;;;;;;;;;;5117106;28;20034;-38
2022/04/07 06:28:22;;;;;;;13.98;7.90;;;;;;;;;;5116959;28;20031;-40
2022/04/07 06:30:49;;;;;;;14.75;6.88;;;;;;;;;;5116920;28;20011;-44
2022/04/07 06:33:15;;;;;;;13.68;6.75;;;;;;;;;;5117038;28;20023;-40
2022/04/07 06:35:41;;;;;;;16.63;7.88;;;;;;;;;;5116811;28;20023;-47
2022/04/07 06:38:07;;;;;;;14.65;5.70;;;;;;;;;;5116806;28;20152;-40
2022/04/07 06:40:34;;;;;;;16.23;9.07;;;;;;;;;;5116845;28;20106;-43
2022/04/07 06:43:01;;;;;;;23.48;10.93;;;;;;;;;;5116433;28;20058;-41
2022/04/07 06:45:28;;;;;;;19.95;9.95;;;;;;;;;;5116758;28;20023;-41
2022/04/07 06:47:55;;;;;;;25.25;7.70;;;;;;;;;;5116793;28;20042;-38
2022/04/07 06:50:21;;;;;;;16.27;7.90;;;;;;;;;;5116359;28;20044;-40
2022/04/07 06:52:47;;;;;;;11.95;6.35;;;;;;;;;;5116445;28;20027;-38
2022/04/07 06:55:14;;;;;;;10.52;5.38;;;;;;;;;;5116428;28;20020;-38
2022/04/07 06:57:52;;;;;;;11.32;5.05;;;;;;;;;;5116357;28;20020;-39
2022/04/07 07:00:19;;;;;;;10.48;5.43;;;;;;;;;;5116558;28;20028;-37
2022/04/07 07:02:51;;;;;;;15.20;6.25;;;;;;;;;;5116266;28;20019;-50
2022/04/07 07:05:18;;;;;;;10.90;5.40;;;;;;;;;;5116192;28;20016;-40
2022/04/07 07:07:44;;;;;;;12.00;5.60;;;;;;;;;;5116222;28;20028;-38
2022/04/07 07:10:11;;;;;;;11.20;5.22;;;;;;;;;;5116113;28;20099;-37
2022/04/07 07:12:39;;;;;;;14.38;6.72;;;;;;;;;;5115170;28;20019;-38
2022/04/07 07:15:06;;;;;;;9.07;4.38;;;;;;;;;;5116207;28;20093;-38
2022/04/07 07:17:38;;;;;;;18.95;8.10;;;;;;;;;;5116131;28;20475;-38
2022/04/07 07:20:07;;;;;;;18.70;8.85;;;;;;;;;;5116041;28;20027;-43
2022/04/07 07:22:34;;;;;;;10.70;4.07;;;;;;;;;;5115816;28;20080;-37
2022/04/07 07:25:02;;;;;;;7.88;3.20;;;;;;;;;;5116103;28;20019;-37
2022/04/07 07:27:28;;;;;;;9.77;3.65;;;;;;;;;;5115902;28;20035;-40
2022/04/07 07:29:54;;;;;;;10.73;5.15;;;;;;;;;;5115682;28;20494;-37
2022/04/07 07:32:20;;;;;;;6.03;3.40;;;;;;;;;;5116086;28;20027;-37
2022/04/07 07:34:47;;;;;;;10.75;3.45;;;;;;;;;;5115777;28;20030;-37
2022/04/07 07:37:19;;;;;;;9.40;3.72;;;;;;;;;;5115514;28;20024;-37
2022/04/07 07:39:45;;;;;;;4.90;2.50;;;;;;;;;;5115443;28;20023;-37
2022/04/07 07:42:11;;;;;;;8.98;3.05;;;;;;;;;;5115556;28;20545;-40
2022/04/07 07:44:37;;;;;;;12.10;5.50;;;;;;;;;;5115644;28;20047;-41
2022/04/07 07:47:04;;;;;;;13.60;5.10;;;;;;;;;;5115359;28;20529;-42
2022/04/07 07:49:30;;;;;;;23.77;11.00;;;;;;;;;;5115604;28;20471;-38
2022/04/07 07:51:56;;;;;;;16.25;8.40;;;;;;;;;;5115160;28;20372;-40
2022/04/07 07:54:23;;;;;;;17.05;7.63;;;;;;;;;;5115171;28;20080;-38
2022/04/07 07:56:49;;;;;;;13.65;6.70;;;;;;;;;;5115242;28;20031;-40
2022/04/07 07:59:20;;;;;;;13.32;5.40;;;;;;;;;;5115019;28;20020;-37
2022/04/07 08:01:46;;;;;;;13.02;6.70;;;;;;;;;;5115029;28;20498;-39
2022/04/07 08:04:12;;;;;;;22.15;9.43;;;;;;;;;;5115141;28;20016;-40
2022/04/07 08:06:39;;;;;;;22.25;9.38;;;;;;;;;;5114708;28;20105;-38
2022/04/07 08:09:05;;;;;;;18.80;8.02;;;;;;;;;;5115392;28;20058;-39
2022/04/07 08:11:31;;;;;;;22.55;11.88;;;;;;;;;;5115067;28;20051;-40
2022/04/07 08:13:58;;;;;;;15.60;6.85;;;;;;;;;;5114704;28;20439;-40
2022/04/07 08:16:25;;;;;;;12.82;7.78;;;;;;;;;;5114792;28;20019;-42
2022/04/07 08:18:51;;;;;;;12.32;6.18;;;;;;;;;;5114777;28;20023;-43
2022/04/07 08:21:19;;;;;;;9.45;4.28;;;;;;;;;;5096660;28;20027;-40
2022/04/07 08:23:45;;;;;;;8.35;3.67;;;;;;;;;;5114227;28;20107;-38
2022/04/07 08:26:11;;;;;;;6.93;2.90;;;;;;;;;;5114748;28;20031;-40
2022/04/07 08:28:37;;;;;;;7.57;2.90;;;;;;;;;;5114674;28;20464;-40
2022/04/07 08:31:06;;;;;;;10.27;2.50;;;;;;;;;;5114946;28;20052;-45
2022/04/07 08:33:32;;;;;;;5.93;2.50;;;;;;;;;;5114858;28;20031;-44
2022/04/07 08:35:58;;;;;;;6.75;2.78;;;;;;;;;;5114515;28;20027;-46
2022/04/07 08:38:24;;;;;;;7.10;1.92;;;;;;;;;;5114209;28;20100;-45
2022/04/07 08:40:51;;;;;;;6.10;3.00;;;;;;;;;;5114676;28;20051;-41
2022/04/07 08:43:18;;;;;;;7.18;3.25;;;;;;;;;;5114421;28;20024;-44
2022/04/07 08:45:44;;;;;;;5.95;3.40;;;;;;;;;;5114189;28;20050;-42
2022/04/07 08:48:12;;;;;;;9.77;3.80;;;;;;;;;;5114190;28;20462;-38
2022/04/07 08:50:41;;;;;;;8.32;4.10;;;;;;;;;;5114047;28;20048;-38
2022/04/07 08:53:07;;;;;;;8.02;3.47;;;;;;;;;;5114051;28;20103;-40
2022/04/07 08:55:34;;;;;;;11.85;4.90;;;;;;;;;;5114133;28;20020;-41
2022/04/07 08:58:01;;;;;;;11.65;4.00;;;;;;;;;;5114143;28;20483;-42
2022/04/07 09:00:27;;;;;;;8.38;4.72;;;;;;;;;;5114186;28;20016;-39
2022/04/07 09:02:53;;;;;;;13.18;4.53;;;;;;;;;;5114047;28;20023;-39
2022/04/07 09:05:26;;;;;;;10.02;4.72;;;;;;;;;;5114043;28;20028;-38
2022/04/07 09:07:55;;;;;;;13.52;4.90;;;;;;;;;;5113788;28;20095;-38
2022/04/07 09:10:23;;;;;;;10.65;5.75;;;;;;;;;;5113773;28;20022;-42
2022/04/07 09:12:50;;;;;;;8.38;5.05;;;;;;;;;;5114149;28;20026;-39
2022/04/07 09:15:16;;;;;;;11.52;6.40;;;;;;;;;;5113851;28;20020;-41
2022/04/07 09:18:05;;;;;;;9.50;5.15;;;;;;;;;;5105312;28;20028;-47
2022/04/07 09:20:33;;;;;;;8.75;3.38;;;;;;;;;;5113645;28;20039;-39
2022/04/07 09:23:00;;;;;;;7.22;2.80;;;;;;;;;;5113613;28;20487;-38
2022/04/07 09:25:28;;;;;;;8.77;3.20;;;;;;;;;;5095331;28;20044;-39
2022/04/07 09:28:00;;;;;;;4.82;2.97;;;;;;;;;;5113759;28;20069;-44
2022/04/07 09:30:26;;;;;;;9.32;3.30;;;;;;;;;;5113532;28;20024;-42
2022/04/07 09:32:53;;;;;;;8.73;3.70;;;;;;;;;;5113548;28;20037;-46
2022/04/07 09:35:19;;;;;;;7.82;3.38;;;;;;;;;;5113506;28;20027;-37
2022/04/07 09:37:45;;;;;;;8.07;3.20;;;;;;;;;;5117515;28;20019;-38
2022/04/07 09:40:13;;;;;;;6.38;3.00;;;;;;;;;;5117656;28;20023;-39
2022/04/07 09:42:42;;;;;;;7.70;3.42;;;;;;;;;;5118082;28;20148;-40
2022/04/07 09:45:12;;;;;;;9.10;5.28;;;;;;;;;;5117480;28;20356;-45
2022/04/07 09:47:42;;;;;;;10.43;3.13;;;;;;;;;;5117481;28;20475;-39
2022/04/07 09:50:29;;;;;;;7.60;3.95;;;;;;;;;;5117941;28;20047;-39
2022/04/07 09:52:56;;;;;;;6.13;3.38;;;;;;;;;;5117369;28;20149;-39
2022/04/07 09:55:23;;;;;;;11.88;3.22;;;;;;;;;;5117572;28;20020;-39
2022/04/07 09:57:51;;;;;;;6.72;3.20;;;;;;;;;;5117457;28;20479;-48
2022/04/07 10:00:20;;;;;;;8.35;3.40;;;;;;;;;;5117254;28;20038;-37
2022/04/07 10:02:46;;;;;;;6.95;2.33;;;;;;;;;;5117658;28;20052;-47
2022/04/07 10:05:13;;;;;;;9.68;3.10;;;;;;;;;;5117298;28;20034;-47
2022/04/07 10:07:41;;;;;;;7.43;2.97;;;;;;;;;;5117000;28;20046;-47
2022/04/07 10:10:07;;;;;;;7.32;3.30;;;;;;;;;;5117161;28;20123;-42
2022/04/07 10:12:34;;;;;;;11.38;5.07;;;;;;;;;;5117373;28;20041;-48
2022/04/07 10:15:00;;;;;;;11.45;5.18;;;;;;;;;;5116998;28;20077;-44
2022/04/07 10:17:26;;;;;;;11.18;4.78;;;;;;;;;;5117350;28;20513;-42
2022/04/07 10:19:55;;;;;;;10.02;4.47;;;;;;;;;;5117032;28;20430;-44
2022/04/07 10:22:21;;;;;;;5.88;3.33;;;;;;;;;;5117110;28;20024;-38
2022/04/07 10:24:49;;;;;;;6.90;3.13;;;;;;;;;;5098668;28;20132;-48
2022/04/07 10:27:16;;;;;;;6.40;2.88;;;;;;;;;;5116970;28;20032;-49
2022/04/07 10:30:01;;;;;;;7.00;2.72;;;;;;;;;;5116954;28;20020;-48
2022/04/07 10:32:34;;;;;;;4.28;2.10;;;;;;;;;;5116821;28;20024;-42
2022/04/07 10:35:00;;;;;;;6.47;2.72;;;;;;;;;;5116616;28;20019;-38
2022/04/07 10:37:45;;;;;;;7.78;2.55;;;;;;;;;;5098308;28;20433;-48
2022/04/07 10:40:30;;;;;;;7.00;3.63;;;;;;;;;;5116648;28;20028;-37
2022/04/07 10:43:10;;;;;;;10.52;4.80;;;;;;;;;;5116827;28;20019;-37
2022/04/07 10:45:38;;;;;;;5.78;3.17;;;;;;;;;;5116476;28;20028;-40
2022/04/07 10:48:36;;;;;;;8.07;3.97;;;;;;;;;;5116458;28;20078;-42
2022/04/07 10:51:04;;;;;;;8.32;3.83;;;;;;;;;;5046511;28;20045;-48
2022/04/07 10:53:32;;;;;;;9.75;3.60;;;;;;;;;;5053649;28;20057;-44
2022/04/07 10:55:59;;;;;;;8.70;2.67;;;;;;;;;;5053627;28;20025;-45
2022/04/07 10:58:38;;;;;;;6.50;3.30;;;;;;;;;;5053432;28;20021;-45
2022/04/07 11:01:04;;;;;;;10.70;4.20;;;;;;;;;;5053533;28;20033;-49
2022/04/07 11:03:31;;;;;;;6.60;3.50;;;;;;;;;;5053365;28;20032;-40
2022/04/07 11:06:01;;;;;;;8.35;4.40;;;;;;;;;;5053458;28;20570;-41
2022/04/07 11:08:30;;;;;;;14.23;4.97;;;;;;;;;;5053254;28;20041;-48
2022/04/07 11:10:56;;;;;;;7.82;4.00;;;;;;;;;;5053450;28;20029;-40
2022/04/07 11:13:42;;;;;;;8.57;3.92;;;;;;;;;;5053311;28;20044;-43
2022/04/07 11:16:18;;;;;;;13.80;4.28;;;;;;;;;;5053430;28;20033;-40
2022/04/07 11:18:52;;;;;;;8.02;3.20;;;;;;;;;;5053120;28;20068;-49
2022/04/07 11:21:18;;;;;;;5.55;3.05;;;;;;;;;;5053213;28;20386;-51
2022/04/07 11:23:53;;;;;;;5.53;2.70;;;;;;;;;;5053128;28;20025;-45
2022/04/07 11:26:21;;;;;;;8.32;3.28;;;;;;;;;;5076487;28;20111;-49
2022/04/07 11:29:06;;;;;;;6.00;3.00;;;;;;;;;;5115742;28;20028;-50
2022/04/07 11:31:41;;;;;;;9.38;2.78;;;;;;;;;;5116036;28;20062;-49
2022/04/07 11:34:26;;;;;;;7.88;3.00;;;;;;;;;;5115932;28;20030;-40
2022/04/07 11:36:52;;;;;;;12.23;3.13;;;;;;;;;;5115383;28;20059;-39
2022/04/07 11:39:19;;;;;;;9.32;3.75;;;;;;;;;;5115655;28;20027;-39
2022/04/07 11:41:46;;;;;;;11.00;3.10;;;;;;;;;;5115800;28;20031;-40
2022/04/07 11:44:14;;;;;;;7.15;3.67;;;;;;;;;;5115528;28;20103;-42
2022/04/07 11:46:40;;;;;;;12.80;4.03;;;;;;;;;;5113819;28;20058;-42
2022/04/07 11:49:07;;;;;;;8.68;2.33;;;;;;;;;;5108492;28;20043;-38
2022/04/07 11:51:34;;;;;;;12.68;3.50;;;;;;;;;;5115030;28;20130;-39
2022/04/07 11:54:00;;;;;;;5.30;3.20;;;;;;;;;;5115201;28;20069;-39
2022/04/07 11:56:34;;;;;;;7.97;2.83;;;;;;;;;;5115037;28;20018;-38
2022/04/07 11:59:00;;;;;;;11.60;3.55;;;;;;;;;;5107149;28;20420;-42
2022/04/07 12:01:28;;;;;;;8.75;3.92;;;;;;;;;;5115019;28;20026;-45
2022/04/07 12:03:55;;;;;;;8.73;3.50;;;;;;;;;;5115092;28;20020;-40
2022/04/07 12:06:22;;;;;;;5.75;3.30;;;;;;;;;;5114897;28;20016;-45
2022/04/07 12:08:48;;;;;;;7.55;3.78;;;;;;;;;;5115089;28;20034;-45
2022/04/07 12:11:15;;;;;;;9.27;3.35;;;;;;;;;;5115087;28;20103;-48
2022/04/07 12:13:43;;;;;;;7.70;4.20;;;;;;;;;;5114818;28;20026;-45
2022/04/07 12:16:10;;;;;;;7.47;3.47;;;;;;;;;;5114889;28;20045;-41
2022/04/07 12:18:36;;;;;;;7.03;2.88;;;;;;;;;;5114340;28;20125;-38
2022/04/07 12:21:05;;;;;;;6.93;2.97;;;;;;;;;;5114593;28;20095;-39
2022/04/07 12:23:31;;;;;;;7.18;4.60;;;;;;;;;;5114611;28;20114;-39
2022/04/07 12:26:01;;;;;;;10.75;5.88;;;;;;;;;;5114386;28;20016;-45
2022/04/07 12:28:38;;;;;;;8.00;3.78;;;;;;;;;;5114292;28;20039;-40
2022/04/07 12:31:05;;;;;;;10.98;4.63;;;;;;;;;;5114285;28;20024;-41
2022/04/07 12:33:44;;;;;;;9.43;4.15;;;;;;;;;;5114567;28;20028;-41
2022/04/07 12:36:14;;;;;;;8.63;3.70;;;;;;;;;;5114523;28;20023;-40
2022/04/07 12:38:41;;;;;;;12.02;4.32;;;;;;;;;;5114169;28;20467;-41
2022/04/07 12:41:15;;;;;;;5.45;3.03;;;;;;;;;;5114258;28;20144;-45
2022/04/07 12:43:44;;;;;;;13.35;4.15;;;;;;;;;;5114082;28;20352;-46
2022/04/07 12:46:12;;;;;;;15.20;5.93;;;;;;;;;;5114166;28;20360;-42
2022/04/07 12:48:58;;;;;;;17.75;6.43;;;;;;;;;;5114329;28;20554;-38
2022/04/07 12:51:25;;;;;;;8.50;4.53;;;;;;;;;;5113775;28;20086;-47
2022/04/07 12:53:52;;;;;;;11.77;5.07;;;;;;;;;;5114087;28;20080;-38
2022/04/07 12:56:25;;;;;;;9.02;3.88;;;;;;;;;;5113953;28;20387;-46
2022/04/07 12:59:00;;;;;;;7.28;3.47;;;;;;;;;;5113764;28;20019;-38
2022/04/07 13:01:26;;;;;;;8.73;3.55;;;;;;;;;;5113962;28;20023;-38
2022/04/07 13:03:54;;;;;;;9.35;3.67;;;;;;;;;;5095639;28;20023;-40
2022/04/07 13:06:21;;;;;;;5.05;3.67;;;;;;;;;;5114337;28;20035;-49
2022/04/07 13:08:47;;;;;;;5.50;3.22;;;;;;;;;;5095253;28;20057;-43
2022/04/07 13:11:30;;;;;;;6.43;3.10;;;;;;;;;;5094651;28;20032;-46
2022/04/07 13:13:57;;;;;;;5.60;2.75;;;;;;;;;;5113737;28;20081;-44
2022/04/07 13:16:23;;;;;;;9.00;3.10;;;;;;;;;;5113990;28;20031;-42
2022/04/07 13:18:49;;;;;;;8.25;2.42;;;;;;;;;;5113458;28;20035;-40
2022/04/07 13:21:15;;;;;;;8.50;2.97;;;;;;;;;;5113553;28;20068;-45
2022/04/07 13:23:41;;;;;;;6.63;2.97;;;;;;;;;;5113549;28;20360;-38
2022/04/07 13:26:07;;;;;;;7.93;3.03;;;;;;;;;;5113947;28;20145;-49
2022/04/07 13:28:33;;;;;;;6.03;2.90;;;;;;;;;;5113664;28;20039;-40
2022/04/07 13:31:03;;;;;;;6.30;3.20;;;;;;;;;;5113685;28;20111;-42
2022/04/07 13:33:29;;;;;;;4.57;2.90;;;;;;;;;;5113688;28;20467;-39
2022/04/07 13:35:56;;;;;;;7.70;3.05;;;;;;;;;;5113352;28;20036;-38
2022/04/07 13:38:22;;;;;;;5.57;2.80;;;;;;;;;;5113349;28;20020;-39
2022/04/07 13:40:49;;;;;;;5.82;3.00;;;;;;;;;;5112077;28;20015;-45
2022/04/07 13:43:19;;;;;;;5.78;2.53;;;;;;;;;;5102046;28;20181;-48
2022/04/07 13:45:45;;;;;;;5.72;3.05;;;;;;;;;;5105917;28;20023;-42
2022/04/07 13:48:11;;;;;;;21.02;13.13;;;;;;;;;;5106038;28;20042;-48
2022/04/07 13:50:43;;;;;;;9.75;5.72;;;;;;;;;;5104881;28;20101;-38
2022/04/07 13:53:09;;;;;;;16.27;9.23;;;;;;;;;;5098768;28;20386;-37
2022/04/07 13:55:36;;;;;;;15.70;8.38;;;;;;;;;;5131785;28;20383;-40
2022/04/07 13:58:02;;;;;;;79.30;47.90;;;;;;;;;;5133511;28;20023;-42
2022/04/07 14:00:28;;;;;;;14.80;7.95;;;;;;;;;;5133870;28;20043;-36
2022/04/07 14:02:54;;;;;;;12.88;8.43;;;;;;;;;;5118144;28;20027;-37
2022/04/07 14:05:20;;;;;;;8.10;5.85;;;;;;;;;;5113620;28;20020;-37
2022/04/07 14:07:46;;;;;;;8.35;4.00;;;;;;;;;;5112988;28;20467;-38
2022/04/07 14:10:14;;;;;;;16.00;6.47;;;;;;;;;;5112615;28;20019;-38
2022/04/07 14:12:40;;;;;;;7.32;5.05;;;;;;;;;;5110488;28;20478;-38
2022/04/07 14:15:07;;;;;;;7.32;3.83;;;;;;;;;;5090316;28;20089;-36
2022/04/07 14:17:34;;;;;;;7.63;3.70;;;;;;;;;;5092372;28;20428;-37
2022/04/07 14:20:00;;;;;;;7.93;3.13;;;;;;;;;;5107205;28;20437;-39
2022/04/07 14:22:26;;;;;;;7.22;4.13;;;;;;;;;;5105530;28;20464;-38
2022/04/07 14:24:52;;;;;;;7.15;3.88;;;;;;;;;;5111871;28;20455;-43
2022/04/07 14:27:18;;;;;;;7.05;3.15;;;;;;;;;;5111961;28;20036;-38
2022/04/07 14:29:44;;;;;;;4.03;3.40;;;;;;;;;;5112081;28;20023;-37
2022/04/07 14:32:10;;;;;;;5.10;3.55;;;;;;;;;;5116575;28;20567;-38
2022/04/07 14:34:37;;;;;;;6.07;3.22;;;;;;;;;;5116681;28;20024;-38
2022/04/07 14:37:03;;;;;;;7.55;3.63;;;;;;;;;;5116577;28;20019;-39
2022/04/07 14:39:29;;;;;;;6.47;3.70;;;;;;;;;;5116566;28;20027;-42
2022/04/07 14:41:55;;;;;;;6.68;3.80;;;;;;;;;;5116468;28;20031;-38